Time;durP1;ratioP1;P1;durP2;ratioP2;P2;SDS_P1;SDS_P2;PMS_P1;PMS_P2;Temp;Humidity;BMP_temperature;BMP_pressure;BME280_temperature;BME280_humidity;BME280_pressure;Samples;Min_cycle;Max_cycle;Signal;HPM_P1;HPM_P2
2020/12/23 00:01:43;;;;;;;25.73;16.85;;;11.60;99.90;;;;;;5015094;28;20421;-67
2020/12/23 00:04:09;;;;;;;29.60;18.80;;;11.60;99.90;;;;;;5014842;28;20927;-67
2020/12/23 00:06:35;;;;;;;26.45;16.77;;;11.60;99.90;;;;;;5015097;28;20416;-67
2020/12/23 00:09:03;;;;;;;27.70;17.23;;;11.60;99.90;;;;;;5015008;28;20515;-67
2020/12/23 00:11:29;;;;;;;26.73;18.30;;;11.60;99.90;;;;;;5016405;28;20527;-67
2020/12/23 00:13:56;;;;;;;30.38;17.98;;;11.70;99.90;;;;;;5014906;28;20428;-67
2020/12/23 00:16:23;;;;;;;23.25;16.67;;;11.70;99.90;;;;;;5013895;28;21305;-67
2020/12/23 00:18:49;;;;;;;26.15;17.58;;;11.70;99.90;;;;;;5014805;28;20412;-67
2020/12/23 00:21:16;;;;;;;26.90;17.40;;;11.90;99.90;;;;;;5014526;28;20447;-66
2020/12/23 00:23:42;;;;;;;26.70;17.70;;;11.80;99.90;;;;;;5014577;28;20424;-67
2020/12/23 00:26:08;;;;;;;26.57;16.40;;;11.80;99.90;;;;;;5014796;28;20429;-67
2020/12/23 00:28:35;;;;;;;26.23;17.60;;;11.70;1.00;;;;;;5014459;28;20412;-67
2020/12/23 00:31:02;;;;;;;26.83;17.45;;;11.80;1.00;;;;;;5014390;28;20774;-66
2020/12/23 00:33:28;;;;;;;26.33;17.60;;;11.70;1.00;;;;;;5014317;28;20416;-66
2020/12/23 00:35:54;;;;;;;26.80;17.83;;;11.70;1.00;;;;;;5014105;28;20453;-67
2020/12/23 00:38:20;;;;;;;27.55;17.65;;;11.70;1.00;;;;;;5014478;28;20698;-67
2020/12/23 00:40:47;;;;;;;31.17;19.10;;;11.60;1.00;;;;;;5014107;28;20408;-66
2020/12/23 00:43:13;;;;;;;27.50;18.40;;;11.60;1.00;;;;;;5014335;28;20428;-66
2020/12/23 00:45:39;;;;;;;32.27;19.40;;;11.60;53.30;;;;;;5013991;28;20417;-67
2020/12/23 00:48:08;;;;;;;30.55;19.08;;;11.50;99.90;;;;;;5014222;28;20413;-67
2020/12/23 00:50:35;;;;;;;32.42;19.90;;;11.50;99.90;;;;;;5013947;28;20432;-67
2020/12/23 00:53:01;;;;;;;30.43;19.80;;;11.50;99.90;;;;;;5013974;28;20498;-67
2020/12/23 00:55:27;;;;;;;31.55;19.27;;;11.50;99.90;;;;;;5013426;28;20800;-66
2020/12/23 00:57:53;;;;;;;29.48;20.90;;;11.50;1.00;;;;;;5014174;28;20417;-67
2020/12/23 01:00:19;;;;;;;31.20;20.70;;;11.60;99.90;;;;;;5013877;28;20428;-67
2020/12/23 01:02:45;;;;;;;30.95;20.27;;;11.50;1.00;;;;;;5013716;28;20429;-67
2020/12/23 01:05:12;;;;;;;32.05;19.73;;;11.60;1.00;;;;;;5013573;28;20416;-68
2020/12/23 01:07:38;;;;;;;29.67;19.00;;;11.50;1.00;;;;;;5013898;28;20421;-67
2020/12/23 01:10:04;;;;;;;31.30;20.60;;;11.60;1.00;;;;;;5013588;28;20414;-67
2020/12/23 01:12:30;;;;;;;28.55;18.95;;;11.60;1.00;;;;;;5013972;28;20409;-67
2020/12/23 01:14:56;;;;;;;30.33;19.73;;;11.60;1.00;;;;;;5013812;28;20417;-67
2020/12/23 01:17:22;;;;;;;28.75;18.83;;;11.70;1.00;;;;;;5013779;28;20789;-67
2020/12/23 01:19:48;;;;;;;29.23;18.30;;;11.70;1.00;;;;;;5013457;28;20416;-67
2020/12/23 01:22:15;;;;;;;30.88;19.92;;;11.70;1.00;;;;;;5014058;28;20432;-67
2020/12/23 01:24:41;;;;;;;26.98;16.92;;;11.70;1.00;;;;;;5013810;28;20413;-67
2020/12/23 01:27:08;;;;;;;33.10;18.53;;;11.70;1.00;;;;;;5013254;28;20534;-67
2020/12/23 01:29:34;;;;;;;29.48;18.13;;;11.50;1.00;;;;;;5013209;28;20829;-67
2020/12/23 01:32:00;;;;;;;30.45;19.10;;;11.50;1.00;;;;;;5013459;28;20412;-67
2020/12/23 01:34:26;;;;;;;26.98;17.70;;;11.50;1.00;;;;;;5013332;28;20487;-67
2020/12/23 01:36:52;;;;;;;24.85;16.48;;;11.50;83.70;;;;;;5013444;28;20509;-67
2020/12/23 01:39:19;;;;;;;27.30;17.23;;;11.50;71.50;;;;;;5013324;28;20412;-67
2020/12/23 01:41:45;;;;;;;28.50;17.55;;;11.40;99.90;;;;;;5012996;28;20432;-67
2020/12/23 01:44:11;;;;;;;31.53;18.97;;;11.30;99.90;;;;;;5013153;28;20441;-67
2020/12/23 01:46:38;;;;;;;31.85;17.80;;;11.40;99.90;;;;;;5012705;28;20417;-67
2020/12/23 01:49:06;;;;;;;31.95;17.88;;;11.40;99.90;;;;;;5012979;28;20421;-67
2020/12/23 01:51:32;;;;;;;31.27;18.00;;;11.40;99.90;;;;;;5012744;28;20491;-67
2020/12/23 01:53:59;;;;;;;30.52;17.35;;;11.30;99.90;;;;;;5013012;28;20424;-67
2020/12/23 01:56:26;;;;;;;31.58;16.77;;;11.30;99.90;;;;;;5012850;28;20413;-67
2020/12/23 01:58:52;;;;;;;30.00;16.33;;;11.30;1.00;;;;;;5012919;28;20813;-67
2020/12/23 02:01:20;;;;;;;27.88;15.90;;;11.40;1.00;;;;;;5012576;28;20428;-67
2020/12/23 02:03:47;;;;;;;24.35;14.98;;;11.50;1.00;;;;;;5012956;28;20417;-67
2020/12/23 02:06:13;;;;;;;24.58;14.68;;;11.60;1.00;;;;;;5011955;28;20428;-67
2020/12/23 02:08:41;;;;;;;24.05;14.60;;;11.60;99.90;;;;;;5012748;28;20421;-67
2020/12/23 02:11:09;;;;;;;21.58;13.73;;;11.70;99.90;;;;;;5012590;28;20409;-67
2020/12/23 02:13:40;;;;;;;24.25;16.10;;;11.70;99.90;;;;;;5012556;28;20423;-67
2020/12/23 02:16:06;;;;;;;25.30;14.68;;;11.60;99.90;;;;;;5012375;28;20425;-67
2020/12/23 02:18:33;;;;;;;23.73;15.02;;;11.50;99.90;;;;;;5012810;28;20416;-67
2020/12/23 02:20:59;;;;;;;24.07;14.40;;;11.50;99.90;;;;;;5012404;28;20447;-67
2020/12/23 02:23:27;;;;;;;25.63;14.60;;;11.60;99.90;;;;;;5012651;28;20421;-67
2020/12/23 02:25:53;;;;;;;23.33;15.07;;;11.50;99.90;;;;;;5012399;28;20409;-67
2020/12/23 02:28:21;;;;;;;21.65;14.48;;;11.50;99.90;;;;;;5012028;28;20423;-67
2020/12/23 02:30:47;;;;;;;23.55;14.80;;;11.50;99.90;;;;;;5012408;28;20418;-67
2020/12/23 02:33:13;;;;;;;22.67;14.55;;;11.50;99.90;;;;;;5012290;28;20440;-67
2020/12/23 02:35:39;;;;;;;21.05;13.73;;;11.50;99.90;;;;;;5012161;28;20463;-67
2020/12/23 02:38:05;;;;;;;25.52;14.43;;;11.60;99.90;;;;;;5012144;28;20412;-67
2020/12/23 02:40:32;;;;;;;22.20;13.90;;;11.60;99.90;;;;;;5011761;28;20421;-68
2020/12/23 02:42:58;;;;;;;19.27;12.30;;;11.60;99.90;;;;;;5012082;28;20424;-67
2020/12/23 02:45:24;;;;;;;19.98;13.13;;;11.60;99.90;;;;;;5011753;28;20890;-67
2020/12/23 02:47:51;;;;;;;20.85;12.65;;;11.70;99.90;;;;;;5012216;28;20432;-67
2020/12/23 02:50:17;;;;;;;19.35;12.55;;;11.70;99.90;;;;;;5011894;28;20828;-67
2020/12/23 02:52:43;;;;;;;21.05;13.60;;;11.70;99.90;;;;;;5011991;28;20443;-67
2020/12/23 02:55:09;;;;;;;21.15;13.02;;;11.80;99.90;;;;;;5011960;28;20910;-67
2020/12/23 02:57:36;;;;;;;20.40;13.65;;;11.80;91.60;;;;;;5011550;28;20423;-67
2020/12/23 03:00:03;;;;;;;19.25;12.77;;;11.80;99.90;;;;;;5011810;28;20417;-66
2020/12/23 03:02:29;;;;;;;22.75;13.65;;;11.80;29.00;;;;;;5012125;28;20501;-67
2020/12/23 03:04:55;;;;;;;18.38;13.15;;;11.80;1.00;;;;;;5011666;28;20416;-67
2020/12/23 03:07:21;;;;;;;18.13;12.47;;;11.80;1.00;;;;;;5011707;28;20413;-67
2020/12/23 03:09:48;;;;;;;21.77;13.82;;;11.90;1.00;;;;;;5011438;28;20423;-67
2020/12/23 03:12:14;;;;;;;20.75;13.90;;;11.80;1.00;;;;;;5011499;28;20429;-67
2020/12/23 03:14:40;;;;;;;23.30;13.82;;;11.80;1.00;;;;;;5012703;28;20413;-67
2020/12/23 03:17:07;;;;;;;24.52;14.73;;;11.70;1.00;;;;;;5011321;28;20412;-66
2020/12/23 03:19:33;;;;;;;23.05;15.02;;;11.70;1.00;;;;;;5011475;28;20417;-66
2020/12/23 03:21:59;;;;;;;25.75;15.70;;;11.70;1.00;;;;;;5011220;28;20443;-67
2020/12/23 03:24:25;;;;;;;23.75;16.35;;;11.60;1.00;;;;;;5011527;28;20413;-67
2020/12/23 03:26:51;;;;;;;24.95;16.15;;;11.60;99.90;;;;;;5011150;28;20893;-67
2020/12/23 03:29:17;;;;;;;24.00;16.70;;;11.60;99.90;;;;;;5011719;28;20424;-67
2020/12/23 03:31:44;;;;;;;24.23;15.98;;;11.70;99.90;;;;;;5011984;28;20463;-67
2020/12/23 03:34:10;;;;;;;23.42;16.58;;;11.60;99.90;;;;;;5011493;28;20482;-67
2020/12/23 03:36:36;;;;;;;29.88;17.25;;;11.60;99.90;;;;;;5011363;28;20789;-67
2020/12/23 03:39:03;;;;;;;23.42;15.93;;;11.70;99.90;;;;;;5011233;28;20416;-67
2020/12/23 03:41:29;;;;;;;27.50;17.45;;;11.70;99.90;;;;;;5011627;28;20424;-67
2020/12/23 03:43:56;;;;;;;26.20;18.33;;;11.70;99.90;;;;;;5011346;28;20424;-67
2020/12/23 03:46:22;;;;;;;29.95;18.60;;;11.80;99.90;;;;;;5011231;28;20417;-67
2020/12/23 03:48:48;;;;;;;27.13;17.95;;;11.80;82.70;;;;;;5011304;28;20413;-67
2020/12/23 03:51:16;;;;;;;25.50;17.35;;;11.70;97.80;;;;;;5010791;28;20870;-67
2020/12/23 03:53:42;;;;;;;27.35;18.55;;;11.70;27.60;;;;;;5010969;28;20413;-67
2020/12/23 03:56:08;;;;;;;29.40;18.77;;;11.70;99.90;;;;;;5011064;28;20493;-67
2020/12/23 03:58:34;;;;;;;23.48;17.33;;;11.80;90.50;;;;;;5011122;28;20420;-67
2020/12/23 04:01:00;;;;;;;27.00;18.00;;;11.80;43.00;;;;;;5011060;28;20905;-67
2020/12/23 04:03:26;;;;;;;26.02;18.17;;;11.70;55.20;;;;;;5010850;28;20451;-67
2020/12/23 04:05:53;;;;;;;27.48;19.40;;;11.70;39.70;;;;;;5011188;28;20416;-67
2020/12/23 04:08:19;;;;;;;27.70;18.23;;;11.70;91.90;;;;;;5010827;28;20960;-67
2020/12/23 04:10:45;;;;;;;25.27;17.90;;;11.80;76.20;;;;;;5011147;28;20424;-67
2020/12/23 04:13:11;;;;;;;27.23;18.80;;;11.70;96.30;;;;;;5011078;28;20467;-67
2020/12/23 04:15:37;;;;;;;24.88;18.92;;;11.80;99.90;;;;;;5010624;28;20893;-66
2020/12/23 04:18:03;;;;;;;24.65;18.00;;;11.80;93.10;;;;;;5010933;28;20444;-67
2020/12/23 04:20:30;;;;;;;28.17;18.73;;;11.70;99.90;;;;;;5010627;28;20409;-67
2020/12/23 04:22:56;;;;;;;24.65;17.90;;;11.80;99.90;;;;;;5010745;28;20429;-67
2020/12/23 04:25:22;;;;;;;27.80;18.30;;;11.80;99.90;;;;;;5010912;28;20535;-67
2020/12/23 04:27:49;;;;;;;22.75;16.60;;;11.80;98.50;;;;;;5010852;28;20447;-66
2020/12/23 04:30:15;;;;;;;24.55;17.25;;;11.80;99.90;;;;;;5012740;28;20890;-67
2020/12/23 04:32:41;;;;;;;21.98;16.55;;;11.80;99.90;;;;;;5014406;28;20470;-67
2020/12/23 04:35:07;;;;;;;23.20;15.82;;;11.80;91.30;;;;;;5014343;28;20412;-67
2020/12/23 04:37:34;;;;;;;24.40;17.63;;;11.80;64.40;;;;;;5014169;28;20420;-67
2020/12/23 04:40:03;;;;;;;24.20;16.38;;;11.80;77.50;;;;;;5014325;28;20427;-67
2020/12/23 04:42:29;;;;;;;20.37;15.90;;;11.80;66.60;;;;;;5014502;28;20494;-67
2020/12/23 04:44:56;;;;;;;22.75;15.90;;;11.70;65.80;;;;;;5014179;28;20479;-67
2020/12/23 04:47:25;;;;;;;21.42;15.27;;;11.70;98.60;;;;;;5014266;28;20420;-67
2020/12/23 04:49:54;;;;;;;21.52;15.05;;;11.70;78.80;;;;;;5014044;28;20830;-67
2020/12/23 04:52:29;;;;;;;23.50;15.87;;;11.70;99.90;;;;;;5013995;28;20439;-67
2020/12/23 04:54:55;;;;;;;20.10;14.43;;;11.70;99.90;;;;;;5014189;28;20420;-67
2020/12/23 04:57:25;;;;;;;21.90;15.88;;;11.70;99.90;;;;;;5014072;28;20432;-67
2020/12/23 04:59:51;;;;;;;19.88;14.40;;;11.70;99.90;;;;;;5014132;28;20420;-67
2020/12/23 05:02:17;;;;;;;20.88;15.05;;;11.70;99.90;;;;;;5013713;28;20432;-67
2020/12/23 05:04:43;;;;;;;21.70;15.20;;;11.60;99.90;;;;;;5013751;28;20428;-67
2020/12/23 05:07:09;;;;;;;19.25;14.38;;;11.70;99.90;;;;;;5013817;28;20885;-67
2020/12/23 05:09:35;;;;;;;20.00;14.27;;;11.60;99.90;;;;;;5013931;28;20416;-67
2020/12/23 05:12:01;;;;;;;22.25;14.65;;;11.70;99.90;;;;;;5014028;28;20413;-66
2020/12/23 05:14:29;;;;;;;21.63;15.63;;;11.70;99.90;;;;;;5013564;28;20421;-67
2020/12/23 05:16:56;;;;;;;21.52;14.60;;;11.70;99.90;;;;;;5013523;28;20420;-66
2020/12/23 05:19:23;;;;;;;22.27;14.80;;;11.70;99.90;;;;;;5013488;28;20420;-66
2020/12/23 05:21:49;;;;;;;19.83;13.50;;;11.70;99.90;;;;;;5013459;28;20429;-66
2020/12/23 05:24:15;;;;;;;18.05;13.55;;;11.70;99.90;;;;;;5013824;28;20470;-67
2020/12/23 05:26:43;;;;;;;17.20;12.75;;;11.70;99.90;;;;;;5013428;28;20416;-66
2020/12/23 05:29:11;;;;;;;18.13;13.63;;;11.70;99.90;;;;;;5013508;28;20465;-67
2020/12/23 05:31:38;;;;;;;17.10;11.38;;;11.60;99.90;;;;;;5013166;28;20440;-67
2020/12/23 05:34:05;;;;;;;15.60;11.60;;;11.60;99.90;;;;;;5013107;28;20428;-67
2020/12/23 05:36:32;;;;;;;13.73;10.98;;;11.60;99.90;;;;;;5013024;28;20786;-67
2020/12/23 05:38:59;;;;;;;18.60;11.75;;;11.60;99.90;;;;;;5013253;28;20444;-67
2020/12/23 05:41:26;;;;;;;15.25;11.23;;;11.60;99.90;;;;;;5012897;28;20466;-67
2020/12/23 05:43:53;;;;;;;13.02;9.82;;;11.50;99.90;;;;;;5012991;28;20438;-67
2020/12/23 05:46:19;;;;;;;13.63;10.40;;;11.40;99.90;;;;;;5012840;28;20885;-67
2020/12/23 05:48:46;;;;;;;14.95;10.15;;;11.50;1.00;;;;;;5013228;28;20413;-67
2020/12/23 05:51:12;;;;;;;17.65;10.70;;;11.60;1.00;;;;;;5012933;28;20413;-67
2020/12/23 05:53:40;;;;;;;13.70;9.97;;;11.60;1.00;;;;;;5013126;28;20878;-66
2020/12/23 05:56:08;;;;;;;13.05;10.07;;;11.60;99.90;;;;;;5012991;28;20417;-67
2020/12/23 05:58:36;;;;;;;12.82;9.90;;;11.50;99.90;;;;;;5012864;28;20416;-67
2020/12/23 06:01:04;;;;;;;10.95;8.90;;;11.50;99.90;;;;;;5012538;28;20427;-67
2020/12/23 06:03:52;;;;;;;12.60;10.13;;;11.50;99.90;;;;;;5012658;28;20432;-66
2020/12/23 06:06:22;;;;;;;11.70;9.02;;;11.60;1.00;;;;;;5012803;28;20412;-67
2020/12/23 06:08:52;;;;;;;11.82;9.70;;;11.60;99.90;;;;;;5012605;28;20917;-67
2020/12/23 06:11:33;;;;;;;12.10;8.52;;;11.60;99.90;;;;;;5012503;28;20417;-67
2020/12/23 06:14:21;;;;;;;10.48;8.57;;;11.70;1.00;;;;;;5013076;28;20440;-67
2020/12/23 06:16:49;;;;;;;10.65;8.10;;;11.70;1.00;;;;;;5014842;28;20421;-67
2020/12/23 06:19:27;;;;;;;9.07;7.45;;;11.70;99.90;;;;;;5012620;28;20412;-67
2020/12/23 06:21:54;;;;;;;9.63;7.40;;;11.70;99.90;;;;;;5012003;28;20432;-67
2020/12/23 06:24:21;;;;;;;8.37;6.90;;;11.70;99.90;;;;;;5012605;28;20413;-67
2020/12/23 06:26:49;;;;;;;8.52;6.30;;;11.70;99.90;;;;;;5012316;28;20413;-67
2020/12/23 06:29:18;;;;;;;8.60;7.10;;;11.70;99.90;;;;;;5012418;28;20420;-67
2020/12/23 06:31:46;;;;;;;8.65;6.60;;;11.70;99.90;;;;;;5012154;28;20413;-67
2020/12/23 06:34:14;;;;;;;8.70;6.40;;;11.60;99.90;;;;;;5012057;28;20423;-67
2020/12/23 06:36:42;;;;;;;8.90;6.43;;;11.60;99.90;;;;;;5012316;28;20471;-67
2020/12/23 06:39:25;;;;;;;8.82;6.00;;;11.60;99.90;;;;;;5012227;28;20420;-67
2020/12/23 06:41:53;;;;;;;8.55;5.82;;;11.70;99.90;;;;;;5012260;28;20425;-67
2020/12/23 06:44:19;;;;;;;8.80;6.32;;;11.70;99.90;;;;;;5011977;28;20416;-67
2020/12/23 06:47:09;;;;;;;9.55;6.80;;;11.60;99.90;;;;;;5011962;28;20421;-67
2020/12/23 06:49:39;;;;;;;7.78;6.60;;;11.60;99.90;;;;;;5011713;28;20421;-67
2020/12/23 06:52:41;;;;;;;5.90;5.03;;;11.70;99.90;;;;;;5011377;28;20416;-67
2020/12/23 06:55:08;;;;;;;6.83;5.47;;;11.60;99.90;;;;;;5011612;28;20454;-67
2020/12/23 06:57:56;;;;;;;6.57;5.70;;;11.70;99.90;;;;;;5011900;28;20416;-67
2020/12/23 07:00:41;;;;;;;8.00;5.50;;;11.70;99.90;;;;;;5011779;28;20589;-67
2020/12/23 07:03:11;;;;;;;6.65;5.53;;;11.70;99.90;;;;;;5011692;28;20511;-67
2020/12/23 07:05:45;;;;;;;4.95;3.30;;;11.70;99.90;;;;;;5011591;28;20423;-67
2020/12/23 07:08:17;;;;;;;3.60;2.58;;;11.70;99.90;;;;;;5011652;28;20421;-67
2020/12/23 07:10:47;;;;;;;4.72;3.28;;;11.80;99.90;;;;;;5011759;28;20416;-67
2020/12/23 07:13:15;;;;;;;4.00;2.55;;;11.70;99.90;;;;;;5011527;28;20797;-67
2020/12/23 07:15:43;;;;;;;3.03;2.50;;;11.80;99.90;;;;;;5011352;28;20789;-67
2020/12/23 07:18:10;;;;;;;5.05;3.47;;;11.80;99.90;;;;;;5011391;28;20412;-67
2020/12/23 07:20:40;;;;;;;3.95;2.83;;;11.90;99.90;;;;;;5011112;28;20944;-67
2020/12/23 07:23:09;;;;;;;3.88;3.25;;;11.80;99.90;;;;;;5011636;28;20455;-67
2020/12/23 07:25:40;;;;;;;6.00;2.30;;;11.80;99.90;;;;;;5011429;28;20419;-67
2020/12/23 07:28:08;;;;;;;3.00;2.70;;;11.80;99.90;;;;;;5011595;28;20608;-67
2020/12/23 07:30:38;;;;;;;3.42;2.67;;;11.90;99.90;;;;;;5011315;28;20483;-67
2020/12/23 07:33:11;;;;;;;3.42;2.55;;;11.80;99.90;;;;;;5011518;28;20420;-67
2020/12/23 07:35:38;;;;;;;4.10;3.20;;;11.80;99.90;;;;;;5011603;28;20532;-67
2020/12/23 07:38:06;;;;;;;4.70;3.00;;;11.90;99.90;;;;;;5011604;28;20471;-67
2020/12/23 07:40:33;;;;;;;5.35;3.55;;;11.90;99.90;;;;;;5011291;28;20424;-67
2020/12/23 07:43:00;;;;;;;5.30;3.55;;;11.90;99.90;;;;;;5011045;28;20429;-67
2020/12/23 07:45:28;;;;;;;6.60;3.57;;;11.90;99.90;;;;;;5010857;28;20965;-67
2020/12/23 07:47:56;;;;;;;4.18;3.22;;;11.90;99.90;;;;;;5011433;28;20416;-67
2020/12/23 07:50:23;;;;;;;6.63;2.97;;;11.90;99.90;;;;;;5011215;28;20416;-67
2020/12/23 07:52:50;;;;;;;5.50;3.20;;;11.90;99.90;;;;;;5011189;28;20413;-67
2020/12/23 07:55:17;;;;;;;4.77;3.47;;;11.90;99.90;;;;;;5010888;28;20938;-67
2020/12/23 07:57:44;;;;;;;4.60;3.90;;;12.00;99.90;;;;;;5011147;28;20417;-67
2020/12/23 08:00:12;;;;;;;4.00;3.60;;;11.90;63.90;;;;;;5011190;28;20423;-67
2020/12/23 08:02:38;;;;;;;5.80;3.25;;;11.90;98.60;;;;;;5010940;28;20506;-67
2020/12/23 08:05:05;;;;;;;5.53;3.57;;;12.00;99.50;;;;;;5013028;28;20420;-67
2020/12/23 08:07:31;;;;;;;4.28;3.50;;;11.90;46.70;;;;;;5015055;28;20417;-66
2020/12/23 08:10:06;;;;;;;4.80;3.15;;;12.00;95.70;;;;;;5014908;28;20844;-67
2020/12/23 08:12:32;;;;;;;3.90;3.10;;;12.00;93.30;;;;;;5015204;28;20416;-66
2020/12/23 08:14:58;;;;;;;4.50;3.20;;;12.00;1.00;;;;;;5014554;28;20416;-67
2020/12/23 08:17:25;;;;;;;5.78;2.85;;;11.90;16.40;;;;;;5015010;28;20416;-66
2020/12/23 08:20:06;;;;;;;3.50;2.65;;;12.00;28.20;;;;;;5014924;28;21204;-67
2020/12/23 08:22:32;;;;;;;3.90;2.92;;;12.00;1.00;;;;;;5014694;28;20424;-67
2020/12/23 08:25:03;;;;;;;3.20;2.90;;;12.00;1.00;;;;;;5015124;28;20416;-67
2020/12/23 08:27:31;;;;;;;3.72;2.40;;;12.00;1.00;;;;;;5015118;28;20412;-67
2020/12/23 08:29:58;;;;;;;3.67;2.70;;;11.90;1.00;;;;;;5014686;28;20419;-67
2020/12/23 08:32:28;;;;;;;3.28;2.00;;;11.90;1.00;;;;;;5014579;28;20421;-67
2020/12/23 08:34:58;;;;;;;2.72;1.92;;;12.00;1.00;;;;;;5014648;28;20497;-67
2020/12/23 08:37:24;;;;;;;3.00;2.35;;;11.90;1.00;;;;;;5014432;28;20447;-67
2020/12/23 08:39:55;;;;;;;2.20;1.95;;;11.90;1.00;;;;;;5014659;28;20423;-66
2020/12/23 08:42:22;;;;;;;2.15;1.95;;;11.90;1.00;;;;;;5014659;28;20428;-67
2020/12/23 08:44:50;;;;;;;3.30;2.10;;;11.90;1.00;;;;;;5014774;28;20424;-66
2020/12/23 08:47:21;;;;;;;2.17;1.73;;;11.90;1.00;;;;;;5014760;28;20452;-66
2020/12/23 08:49:49;;;;;;;2.10;1.80;;;11.90;1.00;;;;;;5014787;28;20470;-66
2020/12/23 08:52:16;;;;;;;3.10;2.10;;;11.90;1.00;;;;;;5010428;28;20451;-66
2020/12/23 08:54:43;;;;;;;2.40;1.80;;;12.00;1.00;;;;;;5011175;28;20527;-66
2020/12/23 08:57:12;;;;;;;3.17;1.95;;;12.00;1.00;;;;;;5014845;28;20420;-66
2020/12/23 08:59:41;;;;;;;2.35;2.00;;;11.90;1.00;;;;;;5014619;28;20424;-66
2020/12/23 09:02:11;;;;;;;1.98;1.70;;;12.00;1.00;;;;;;5014481;28;20421;-66
2020/12/23 09:04:37;;;;;;;2.80;1.90;;;12.00;1.00;;;;;;5017394;28;20507;-66
2020/12/23 09:07:05;;;;;;;2.47;1.92;;;12.10;1.00;;;;;;5014295;28;20413;-67
2020/12/23 09:09:31;;;;;;;2.00;1.80;;;12.10;1.00;;;;;;5014234;28;20416;-67
2020/12/23 09:11:58;;;;;;;2.40;1.95;;;12.10;1.00;;;;;;5014016;28;20408;-67
2020/12/23 09:14:29;;;;;;;2.28;1.58;;;12.20;1.00;;;;;;5013566;28;20455;-68
2020/12/23 09:17:00;;;;;;;2.10;1.90;;;12.20;1.00;;;;;;5013128;28;20424;-67
2020/12/23 09:19:47;;;;;;;2.60;1.90;;;12.30;99.90;;;;;;5014104;28;20944;-67
2020/12/23 09:22:24;;;;;;;2.45;1.60;;;12.30;99.90;;;;;;5014036;28;20424;-67
2020/12/23 09:24:50;;;;;;;1.60;1.50;;;12.30;99.90;;;;;;5013339;28;20759;-68
2020/12/23 09:27:18;;;;;;;2.80;1.60;;;12.30;99.90;;;;;;5013350;28;20420;-68
2020/12/23 09:29:45;;;;;;;2.00;1.80;;;12.30;99.90;;;;;;5013379;28;20420;-68
2020/12/23 09:32:11;;;;;;;2.20;2.00;;;12.30;99.90;;;;;;5006984;28;20815;-67
2020/12/23 09:34:38;;;;;;;2.20;1.70;;;12.30;99.90;;;;;;4993441;28;20795;-66
2020/12/23 09:37:05;;;;;;;1.90;1.58;;;12.40;99.90;;;;;;4993478;28;20434;-67
2020/12/23 09:39:34;;;;;;;2.20;1.50;;;12.50;99.90;;;;;;4993751;28;20461;-66
2020/12/23 09:42:01;;;;;;;3.15;1.80;;;12.60;99.90;;;;;;4993334;28;20888;-68
2020/12/23 09:44:28;;;;;;;1.90;1.80;;;12.70;99.90;;;;;;4993518;28;20422;-67
2020/12/23 09:46:54;;;;;;;2.05;1.52;;;12.70;99.90;;;;;;4993705;28;20422;-67
2020/12/23 09:49:20;;;;;;;1.63;1.52;;;12.80;99.90;;;;;;4993750;28;20494;-67
2020/12/23 09:51:47;;;;;;;2.63;1.30;;;12.90;99.90;;;;;;5004612;28;20899;-66
2020/12/23 09:54:13;;;;;;;1.40;1.30;;;13.00;99.90;;;;;;5012502;28;20916;-65
2020/12/23 09:56:51;;;;;;;1.70;1.60;;;13.10;1.00;;;;;;5012963;28;20420;-66
2020/12/23 09:59:18;;;;;;;1.30;1.20;;;13.00;1.00;;;;;;5013094;28;20416;-66
2020/12/23 10:01:44;;;;;;;1.60;1.50;;;13.00;1.00;;;;;;5012758;28;20421;-67
2020/12/23 10:04:10;;;;;;;2.60;1.40;;;13.10;1.00;;;;;;5012721;28;20409;-66
2020/12/23 10:06:37;;;;;;;2.90;1.40;;;13.00;1.00;;;;;;5012986;28;20427;-66
2020/12/23 10:09:04;;;;;;;1.40;1.20;;;13.00;1.00;;;;;;5012612;28;20420;-66
2020/12/23 10:11:30;;;;;;;0.90;0.80;;;13.00;1.00;;;;;;5013248;28;20479;-66
2020/12/23 10:13:57;;;;;;;1.02;1.00;;;13.00;1.00;;;;;;5012637;28;20417;-66
2020/12/23 10:16:29;;;;;;;1.20;1.00;;;13.00;99.90;;;;;;5012679;28;20416;-65
2020/12/23 10:18:55;;;;;;;0.80;0.80;;;13.00;99.90;;;;;;5013034;28;20444;-66
2020/12/23 10:21:21;;;;;;;0.80;0.80;;;13.00;99.90;;;;;;5013201;28;20424;-66
2020/12/23 10:23:47;;;;;;;1.05;0.82;;;13.00;99.90;;;;;;5012928;28;20491;-65
2020/12/23 10:26:14;;;;;;;1.10;1.00;;;13.10;99.90;;;;;;5013350;28;20421;-68
2020/12/23 10:28:40;;;;;;;1.30;1.20;;;13.00;99.90;;;;;;5012867;28;20417;-67
2020/12/23 10:31:07;;;;;;;1.13;1.02;;;13.00;99.90;;;;;;5013901;28;20514;-67
2020/12/23 10:33:34;;;;;;;1.80;0.95;;;13.00;99.90;;;;;;5012169;28;20468;-67
2020/12/23 10:36:00;;;;;;;1.23;0.80;;;13.10;99.90;;;;;;5012291;28;20432;-67
2020/12/23 10:38:28;;;;;;;2.80;1.00;;;13.20;99.90;;;;;;5012164;28;20935;-68
2020/12/23 10:40:55;;;;;;;1.80;1.02;;;13.30;99.90;;;;;;5012016;28;20475;-68
2020/12/23 10:43:21;;;;;;;0.90;0.80;;;13.20;99.90;;;;;;5011958;28;20435;-68
2020/12/23 10:45:47;;;;;;;0.80;0.80;;;13.30;99.90;;;;;;5011917;28;20519;-68
2020/12/23 10:48:14;;;;;;;1.35;0.93;;;13.30;99.90;;;;;;5011890;28;20428;-67
2020/12/23 10:50:40;;;;;;;1.30;0.90;;;13.30;99.90;;;;;;5011815;28;20439;-67
2020/12/23 10:53:06;;;;;;;0.93;0.75;;;13.20;99.90;;;;;;5011706;28;20427;-66
2020/12/23 10:55:32;;;;;;;1.40;0.70;;;13.20;99.90;;;;;;5012767;28;20774;-67
2020/12/23 10:57:58;;;;;;;0.80;0.70;;;13.10;99.90;;;;;;5013003;28;20425;-67
2020/12/23 11:00:25;;;;;;;1.30;0.70;;;13.20;99.90;;;;;;5012121;28;20479;-66
2020/12/23 11:02:51;;;;;;;1.50;0.80;;;13.20;99.90;;;;;;5011663;28;20659;-66
2020/12/23 11:05:18;;;;;;;1.50;0.80;;;13.20;99.00;;;;;;5011620;28;20444;-66
2020/12/23 11:07:44;;;;;;;0.90;0.80;;;13.30;43.10;;;;;;5012071;28;20836;-67
2020/12/23 11:10:10;;;;;;;1.90;0.80;;;13.30;4.20;;;;;;5011617;28;20413;-66
2020/12/23 11:12:36;;;;;;;2.00;1.00;;;13.30;1.00;;;;;;5011444;28;20412;-67
2020/12/23 11:15:03;;;;;;;1.20;0.90;;;13.30;1.00;;;;;;5011952;28;20420;-67
2020/12/23 11:17:29;;;;;;;1.15;0.80;;;13.20;17.00;;;;;;5011635;28;20416;-67
2020/12/23 11:19:55;;;;;;;0.95;0.80;;;13.20;4.10;;;;;;5011818;28;20790;-67
2020/12/23 11:22:22;;;;;;;0.70;0.60;;;13.30;1.00;;;;;;5011237;28;20425;-68
2020/12/23 11:24:48;;;;;;;0.90;0.80;;;13.30;1.00;;;;;;5011601;28;20421;-68
2020/12/23 11:27:16;;;;;;;1.52;1.20;;;13.30;1.00;;;;;;5013344;28;20432;-67
2020/12/23 11:29:42;;;;;;;1.13;0.90;;;13.10;1.00;;;;;;5011219;28;20420;-67
2020/12/23 11:32:08;;;;;;;1.30;0.90;;;13.10;1.00;;;;;;5011011;28;20426;-67
2020/12/23 11:34:35;;;;;;;1.70;0.80;;;13.00;1.00;;;;;;5011425;28;20420;-67
2020/12/23 11:37:01;;;;;;;1.20;0.90;;;13.00;1.00;;;;;;5011506;28;20938;-67
2020/12/23 11:39:28;;;;;;;0.90;0.90;;;13.10;1.00;;;;;;5011552;28;20468;-67
2020/12/23 11:41:55;;;;;;;2.00;0.90;;;13.20;1.00;;;;;;5011696;28;20486;-67
2020/12/23 11:44:21;;;;;;;0.88;0.80;;;13.20;1.00;;;;;;5012039;28;20416;-67
2020/12/23 11:46:48;;;;;;;1.10;0.70;;;13.10;1.00;;;;;;5013889;28;20782;-67
2020/12/23 11:49:14;;;;;;;0.80;0.70;;;13.20;1.00;;;;;;5011938;28;20420;-67
2020/12/23 11:51:40;;;;;;;1.30;0.75;;;13.10;1.00;;;;;;5011000;28;20976;-67
2020/12/23 11:54:06;;;;;;;0.80;0.70;;;13.00;1.00;;;;;;5010784;28;20989;-67
2020/12/23 11:56:33;;;;;;;0.75;0.70;;;13.00;1.00;;;;;;5011177;28;20440;-67
2020/12/23 11:58:59;;;;;;;1.70;0.98;;;13.00;1.00;;;;;;5011533;28;20417;-67
2020/12/23 12:01:26;;;;;;;2.50;0.80;;;13.00;1.00;;;;;;5011777;28;20615;-67
2020/12/23 12:03:52;;;;;;;0.90;0.65;;;13.00;1.00;;;;;;5012496;28;20800;-66
2020/12/23 12:06:18;;;;;;;0.90;0.70;;;13.00;1.00;;;;;;5011085;28;20412;-66
2020/12/23 12:08:44;;;;;;;0.90;0.80;;;13.00;1.00;;;;;;5011083;28;20412;-66
2020/12/23 12:11:11;;;;;;;0.90;0.80;;;13.00;1.00;;;;;;5010740;28;20428;-66
2020/12/23 12:13:38;;;;;;;1.90;1.05;;;12.90;1.00;;;;;;5010406;28;20404;-67
2020/12/23 12:16:05;;;;;;;1.30;1.00;;;12.90;1.00;;;;;;5010868;28;20413;-66
2020/12/23 12:18:31;;;;;;;1.00;0.90;;;12.90;1.00;;;;;;5011384;28;20888;-66
2020/12/23 12:20:58;;;;;;;1.20;1.00;;;12.90;1.00;;;;;;5011039;28;20412;-65
2020/12/23 12:23:24;;;;;;;2.78;1.25;;;12.80;1.00;;;;;;5010562;28;20476;-65
2020/12/23 12:25:50;;;;;;;1.58;1.30;;;12.80;1.00;;;;;;5011201;28;20444;-66
2020/12/23 12:28:16;;;;;;;1.40;1.00;;;12.80;1.00;;;;;;5010971;28;20820;-66
2020/12/23 12:30:43;;;;;;;0.95;0.88;;;13.40;1.00;;;;;;5010563;28;20417;-65
2020/12/23 12:33:09;;;;;;;1.37;1.27;;;12.80;1.00;;;;;;5010728;28;20436;-65
2020/12/23 12:35:35;;;;;;;1.20;1.10;;;12.80;1.00;;;;;;5011008;28;20428;-66
2020/12/23 12:38:01;;;;;;;1.83;1.65;;;12.80;1.00;;;;;;5010631;28;20912;-66
2020/12/23 12:40:27;;;;;;;2.53;1.85;;;12.60;1.00;;;;;;5010094;28;20416;-66
2020/12/23 12:42:54;;;;;;;2.40;2.05;;;12.40;95.00;;;;;;5010215;28;20433;-66